createdAt,value
2019-04-26T00:01:51.497Z,3.02
2019-04-26T00:06:48.940Z,4.25
2019-04-26T00:09:18.791Z,2.05
2019-04-26T00:11:48.656Z,2.25
2019-04-26T00:14:34.799Z,1.20
2019-04-26T00:17:07.627Z,4.10
2019-04-26T00:19:37.289Z,4.20
2019-04-26T00:22:06.455Z,4.25
2019-04-26T00:24:34.922Z,1.70
2019-04-26T00:27:03.783Z,1.02
2019-04-26T00:29:32.019Z,1.27
2019-04-26T00:32:00.751Z,3.10
2019-04-26T00:34:28.950Z,3.58
2019-04-26T00:36:57.176Z,3.10
2019-04-26T00:39:25.400Z,3.75
2019-04-26T00:41:53.928Z,2.45
2019-04-26T00:44:22.851Z,2.85
2019-04-26T00:46:51.142Z,1.47
2019-04-26T00:49:21.355Z,2.17
2019-04-26T00:51:49.649Z,2.98
2019-04-26T00:54:18.646Z,5.67
2019-04-26T00:56:47.204Z,4.92
2019-04-26T00:59:16.394Z,3.83
2019-04-26T01:01:47.395Z,3.00
2019-04-26T01:04:16.997Z,4.47
2019-04-26T01:06:47.159Z,3.72
2019-04-26T01:09:16.064Z,3.50
2019-04-26T01:11:45.275Z,5.12
2019-04-26T01:14:13.502Z,1.60
2019-04-26T01:16:41.800Z,2.25
2019-04-26T01:19:11.261Z,2.22
2019-04-26T01:21:45.649Z,5.28
2019-04-26T01:24:13.882Z,3.15
2019-04-26T01:26:42.105Z,3.30
2019-04-26T01:29:11.943Z,4.75
2019-04-26T01:31:54.866Z,3.08
2019-04-26T01:34:24.161Z,1.60
2019-04-26T01:36:52.673Z,4.08
2019-04-26T01:39:22.438Z,2.55
2019-04-26T01:41:58.534Z,5.28
2019-04-26T01:44:39.324Z,6.17
2019-04-26T01:47:07.933Z,3.37
2019-04-26T01:49:36.148Z,2.98
2019-04-26T01:52:09.646Z,2.72
2019-04-26T01:54:43.012Z,5.92
2019-04-26T01:57:11.539Z,6.15
2019-04-26T01:59:42.832Z,3.27
2019-04-26T02:02:18.467Z,2.42
2019-04-26T02:04:48.369Z,4.17
2019-04-26T02:07:18.226Z,2.72
2019-04-26T02:09:46.450Z,2.45
2019-04-26T02:12:15.207Z,5.03
2019-04-26T02:14:43.448Z,2.17
2019-04-26T02:17:11.687Z,2.40
2019-04-26T02:19:39.920Z,6.35
2019-04-26T02:22:10.195Z,4.33
2019-04-26T02:24:40.083Z,2.35
2019-04-26T02:27:09.940Z,2.33
2019-04-26T02:29:38.273Z,1.70
2019-04-26T02:32:07.735Z,3.62
2019-04-26T02:34:37.849Z,3.22
2019-04-26T02:37:06.877Z,2.65
2019-04-26T02:39:38.182Z,5.25
2019-04-26T02:42:09.012Z,2.77
2019-04-26T02:44:41.080Z,1.80
2019-04-26T02:47:38.914Z,4.22
2019-04-26T02:50:11.427Z,2.70
2019-04-26T02:52:45.699Z,3.20
2019-04-26T02:55:17.171Z,2.35
2019-04-26T02:57:48.746Z,3.42
2019-04-26T03:00:18.872Z,4.42
2019-04-26T03:02:50.198Z,2.62
2019-04-26T03:05:18.425Z,4.33
2019-04-26T03:07:49.543Z,2.47
2019-04-26T03:10:17.781Z,2.17
2019-04-26T03:12:45.984Z,2.47
2019-04-26T03:15:25.526Z,3.52
2019-04-26T03:17:58.639Z,7.37
2019-04-26T03:20:36.321Z,3.83
2019-04-26T03:23:40.986Z,6.40
2019-04-26T03:26:01.707Z,3.10
2019-04-26T03:28:37.647Z,2.52
2019-04-26T03:31:11.766Z,2.20
2019-04-26T03:34:05.745Z,3.33
2019-04-26T03:36:43.968Z,2.10
2019-04-26T03:39:19.905Z,2.22
2019-04-26T03:42:26.171Z,3.12
2019-04-26T03:45:15.449Z,4.72
2019-04-26T03:47:52.834Z,3.67
2019-04-26T03:50:24.311Z,2.00
2019-04-26T03:53:12.576Z,2.85
2019-04-26T03:55:45.695Z,5.25
2019-04-26T04:01:39.421Z,5.75
2019-04-26T04:04:25.748Z,3.85
2019-04-26T04:07:03.672Z,5.37
2019-04-26T04:09:23.917Z,5.78
2019-04-26T04:12:10.800Z,4.70
2019-04-26T04:14:45.089Z,3.92
2019-04-26T04:17:18.705Z,4.78
2019-04-26T04:19:55.467Z,5.45
2019-04-26T04:22:23.754Z,5.45
2019-04-26T04:25:05.147Z,3.70
2019-04-26T04:27:58.450Z,4.20
2019-04-26T04:30:35.404Z,4.33
2019-04-26T04:33:13.884Z,6.30
2019-04-26T04:35:49.291Z,4.25
2019-04-26T04:38:51.155Z,4.65
2019-04-26T04:41:33.285Z,4.67
2019-04-26T04:44:21.512Z,5.50
2019-04-26T04:46:57.544Z,4.20
2019-04-26T04:49:42.991Z,4.72
2019-04-26T04:52:37.164Z,7.12
2019-04-26T04:55:30.308Z,4.67
2019-04-26T04:58:26.014Z,5.00
2019-04-26T05:01:10.797Z,5.10
2019-04-26T05:04:03.637Z,4.85
2019-04-26T05:06:53.435Z,7.17
2019-04-26T05:09:39.980Z,6.45
2019-04-26T05:12:29.531Z,6.47
2019-04-26T05:15:08.960Z,9.08
2019-04-26T05:17:49.637Z,7.25
2019-04-26T05:20:29.984Z,5.75
2019-04-26T05:23:25.391Z,9.73
2019-04-26T05:26:07.376Z,7.55
2019-04-26T05:28:56.880Z,7.62
2019-04-26T05:31:32.288Z,6.50
2019-04-26T05:34:04.991Z,7.17
2019-04-26T05:36:44.985Z,7.00
2019-04-26T05:39:26.135Z,6.70
2019-04-26T05:42:31.812Z,7.78
2019-04-26T05:45:50.018Z,20.90
2019-04-26T05:48:35.608Z,15.50
2019-04-26T05:51:27.573Z,8.68
2019-04-26T05:54:34.711Z,10.43
2019-04-26T05:57:11.042Z,7.92
2019-04-26T05:59:48.623Z,10.48
2019-04-26T06:02:24.890Z,10.23
2019-04-26T06:05:20.211Z,10.53
2019-04-26T06:08:13.574Z,9.88
2019-04-26T06:10:49.398Z,13.48
2019-04-26T06:13:31.014Z,7.37
2019-04-26T06:16:16.179Z,9.13
2019-04-26T06:19:03.926Z,9.73
2019-04-26T06:21:38.052Z,9.78
2019-04-26T06:24:30.341Z,12.63
2019-04-26T06:27:13.144Z,11.45
2019-04-26T06:29:59.211Z,12.50
2019-04-26T06:32:30.698Z,8.75
2019-04-26T06:35:08.627Z,12.85
2019-04-26T06:38:03.916Z,9.70
2019-04-26T06:40:48.639Z,12.85
2019-04-26T06:43:26.383Z,9.10
2019-04-26T06:46:40.010Z,8.73
2019-04-26T06:49:25.092Z,8.45
2019-04-26T06:52:14.956Z,7.55
2019-04-26T06:54:56.271Z,9.35
2019-04-26T06:58:04.886Z,5.33
2019-04-26T07:01:01.783Z,8.75
2019-04-26T07:03:51.441Z,7.03
2019-04-26T07:06:34.514Z,7.75
2019-04-26T07:09:08.830Z,8.43
2019-04-26T07:12:14.768Z,13.40
2019-04-26T07:15:05.764Z,8.58
2019-04-26T07:17:40.059Z,7.53
2019-04-26T07:20:28.579Z,13.68
2019-04-26T07:23:16.737Z,10.35
2019-04-26T07:26:14.080Z,9.85
2019-04-26T07:28:57.636Z,10.35
2019-04-26T07:31:43.911Z,12.53
2019-04-26T07:34:40.216Z,16.27
2019-04-26T07:37:29.832Z,11.55
2019-04-26T07:40:29.893Z,13.30
2019-04-26T07:43:26.058Z,8.93
2019-04-26T07:46:17.050Z,10.23
2019-04-26T07:49:12.547Z,8.08
2019-04-26T07:52:13.332Z,9.88
2019-04-26T07:55:11.408Z,5.60
2019-04-26T07:58:17.027Z,8.15
2019-04-26T08:00:53.142Z,5.08
2019-04-26T08:03:41.555Z,6.08
2019-04-26T08:06:13.725Z,3.55
2019-04-26T08:08:48.151Z,4.80
2019-04-26T08:11:25.632Z,4.35
2019-04-26T08:14:15.218Z,12.07
2019-04-26T08:16:57.111Z,4.37
2019-04-26T08:19:26.247Z,5.28
2019-04-26T08:21:55.600Z,5.55
2019-04-26T08:24:27.996Z,5.60
2019-04-26T08:27:08.731Z,7.00
2019-04-26T08:29:33.305Z,4.00
2019-04-26T08:32:03.405Z,8.15
2019-04-26T08:34:33.847Z,4.08
2019-04-26T08:37:06.685Z,2.47
2019-04-26T08:39:44.930Z,3.58
2019-04-26T08:42:12.065Z,3.00
2019-04-26T08:44:56.246Z,1.50
2019-04-26T08:47:46.066Z,5.70
2019-04-26T08:50:31.415Z,2.15
2019-04-26T08:53:02.223Z,1.95
2019-04-26T08:55:30.447Z,5.03
2019-04-26T08:58:02.233Z,3.92
2019-04-26T09:00:38.338Z,3.40
2019-04-26T09:03:11.761Z,3.65
2019-04-26T09:05:58.224Z,6.65
2019-04-26T09:08:29.173Z,5.12
2019-04-26T09:10:58.808Z,4.53
2019-04-26T09:13:29.226Z,4.75
2019-04-26T09:16:08.284Z,4.10
2019-04-26T09:18:43.685Z,5.87
2019-04-26T09:21:07.411Z,4.60
2019-04-26T09:23:52.034Z,4.95
2019-04-26T09:26:28.352Z,5.12
2019-04-26T09:29:15.588Z,3.33
2019-04-26T09:31:45.542Z,4.87
2019-04-26T09:34:15.743Z,8.20
2019-04-26T09:36:45.029Z,7.67
2019-04-26T09:39:14.597Z,4.00
2019-04-26T09:41:43.100Z,7.72
2019-04-26T09:44:24.771Z,4.97
2019-04-26T09:47:00.713Z,3.40
2019-04-26T09:49:31.433Z,3.67
2019-04-26T09:52:01.205Z,3.25
2019-04-26T09:54:30.177Z,4.20
2019-04-26T09:56:58.465Z,5.70
2019-04-26T09:59:27.191Z,4.03
2019-04-26T10:01:59.450Z,3.12
2019-04-26T10:04:25.663Z,5.33
2019-04-26T10:06:59.389Z,5.90
2019-04-26T10:09:26.801Z,4.93
2019-04-26T10:11:56.670Z,3.83
2019-04-26T10:14:43.223Z,7.30
2019-04-26T10:17:19.099Z,4.58
2019-04-26T10:19:49.415Z,3.58
2019-04-26T10:22:18.184Z,1.87
2019-04-26T10:24:46.934Z,6.35
2019-04-26T10:27:17.233Z,6.28
2019-04-26T10:29:45.487Z,2.17
2019-04-26T10:32:14.191Z,3.75
2019-04-26T10:34:47.250Z,4.05
2019-04-26T10:37:13.700Z,3.83
2019-04-26T10:39:43.712Z,3.37
2019-04-26T10:42:11.919Z,3.22
2019-04-26T10:44:41.116Z,3.10
2019-04-26T10:47:09.648Z,2.83
2019-04-26T10:49:43.620Z,4.70
2019-04-26T10:52:16.976Z,2.50
2019-04-26T10:57:25.888Z,4.17
2019-04-26T10:59:58.244Z,4.53
2019-04-26T11:02:27.697Z,4.53
2019-04-26T11:04:55.917Z,5.22
2019-04-26T11:07:26.496Z,5.80
2019-04-26T11:09:55.047Z,4.50
2019-04-26T11:12:24.095Z,6.60
2019-04-26T11:14:53.229Z,6.53
2019-04-26T11:17:22.815Z,4.35
2019-04-26T11:19:52.061Z,7.10
2019-04-26T11:22:28.891Z,5.25
2019-04-26T11:24:53.789Z,4.85
2019-04-26T11:27:23.200Z,5.85
2019-04-26T11:29:53.938Z,4.75
2019-04-26T11:32:26.009Z,3.83
2019-04-26T11:34:58.176Z,3.92
2019-04-26T11:37:24.711Z,5.92
2019-04-26T11:39:54.012Z,6.70
2019-04-26T11:42:22.803Z,5.78
2019-04-26T11:44:51.117Z,6.03
2019-04-26T11:47:19.356Z,6.17
2019-04-26T11:49:49.997Z,5.75
2019-04-26T11:52:18.579Z,4.65
2019-04-26T11:54:51.320Z,5.17
2019-04-26T11:57:17.467Z,6.45
2019-04-26T11:59:46.253Z,6.30
2019-04-26T12:02:16.106Z,5.53
2019-04-26T12:04:49.532Z,5.25
2019-04-26T12:07:22.758Z,4.03
2019-04-26T12:09:55.312Z,4.17
2019-04-26T12:12:24.280Z,4.22
2019-04-26T12:14:52.575Z,4.30
2019-04-26T12:17:20.828Z,3.45
2019-04-26T12:19:52.273Z,4.30
2019-04-26T12:22:19.171Z,4.00
2019-04-26T12:24:47.826Z,5.15
2019-04-26T12:27:16.253Z,4.33
2019-04-26T12:29:48.248Z,4.97
2019-04-26T12:32:17.216Z,6.15
2019-04-26T12:34:45.648Z,3.92
2019-04-26T12:37:19.963Z,3.67
2019-04-26T12:39:44.292Z,3.52
2019-04-26T12:42:13.826Z,4.33
2019-04-26T12:44:47.030Z,6.05
2019-04-26T12:49:47.202Z,3.70
2019-04-26T12:52:17.398Z,5.30
2019-04-26T12:54:45.579Z,5.15
2019-04-26T12:57:16.202Z,5.50
2019-04-26T12:59:44.654Z,4.55
2019-04-26T13:02:16.558Z,5.92
2019-04-26T13:04:44.530Z,4.92
2019-04-26T13:07:23.760Z,4.60
2019-04-26T13:09:49.444Z,5.25
2019-04-26T13:12:26.048Z,4.30
2019-04-26T13:15:00.984Z,5.00
2019-04-26T13:17:31.345Z,4.87
2019-04-26T13:20:01.735Z,4.95
2019-04-26T13:22:32.061Z,4.35
2019-04-26T13:25:00.087Z,3.92
2019-04-26T13:27:28.353Z,4.05
2019-04-26T13:30:02.552Z,3.10
2019-04-26T13:32:26.819Z,4.42
2019-04-26T13:34:55.264Z,3.98
2019-04-26T13:37:23.864Z,4.58
2019-04-26T13:39:55.264Z,5.60
2019-04-26T13:42:22.303Z,5.33
2019-04-26T13:44:52.338Z,3.47
2019-04-26T13:47:31.436Z,5.05
2019-04-26T13:50:01.337Z,5.08
2019-04-26T13:52:29.624Z,4.87
2019-04-26T13:54:58.108Z,5.60
2019-04-26T13:57:27.344Z,5.50
2019-04-26T13:59:55.603Z,6.05
2019-04-26T14:02:23.972Z,6.35
2019-04-26T14:04:52.261Z,6.47
2019-04-26T14:07:24.565Z,8.23
2019-04-26T14:09:50.543Z,5.65
2019-04-26T14:12:19.174Z,5.95
2019-04-26T14:14:47.798Z,6.45
2019-04-26T14:17:16.560Z,8.05
2019-04-26T14:19:45.293Z,7.37
2019-04-26T14:22:16.569Z,10.55
2019-04-26T14:24:46.487Z,11.35
2019-04-26T14:27:16.707Z,10.35
2019-04-26T14:29:45.279Z,11.50
2019-04-26T14:32:13.794Z,9.75
2019-04-26T14:34:43.809Z,12.18
2019-04-26T14:37:15.575Z,8.90
2019-04-26T14:39:50.115Z,8.85
2019-04-26T14:42:12.152Z,9.05
2019-04-26T14:44:49.152Z,9.68
2019-04-26T14:47:14.923Z,10.18
2019-04-26T14:49:42.938Z,9.20
2019-04-26T14:52:10.652Z,9.98
2019-04-26T14:54:41.427Z,11.03
2019-04-26T14:57:16.914Z,8.00
2019-04-26T14:59:46.705Z,8.48
2019-04-26T15:02:32.815Z,8.75
2019-04-26T15:05:22.231Z,10.18
2019-04-26T15:07:52.846Z,11.60
2019-04-26T15:10:22.386Z,12.73
2019-04-26T15:12:58.544Z,7.50
2019-04-26T15:15:20.839Z,11.28
2019-04-26T15:17:49.170Z,8.25
2019-04-26T15:20:20.883Z,8.15
2019-04-26T15:22:49.914Z,9.38
2019-04-26T15:25:17.746Z,7.90
2019-04-26T15:27:46.162Z,6.40
2019-04-26T15:30:14.436Z,5.25
2019-04-26T15:32:42.745Z,6.25
2019-04-26T15:35:15.541Z,6.28
2019-04-26T15:37:42.266Z,4.90
2019-04-26T15:40:31.898Z,4.97
2019-04-26T15:43:19.119Z,4.67
2019-04-26T15:45:49.035Z,6.05
2019-04-26T15:48:23.026Z,4.75
2019-04-26T15:50:55.675Z,5.08
2019-04-26T15:53:24.100Z,6.28
2019-04-26T15:55:52.588Z,4.62
2019-04-26T15:58:20.858Z,2.50
2019-04-26T16:00:49.191Z,3.50
2019-04-26T16:03:17.623Z,3.08
2019-04-26T16:05:45.970Z,4.83
2019-04-26T16:08:14.288Z,2.08
2019-04-26T16:10:43.028Z,2.58
2019-04-26T16:13:21.468Z,2.92
2019-04-26T16:15:43.572Z,2.30
2019-04-26T16:18:17.018Z,2.45
2019-04-26T16:20:42.848Z,1.70
2019-04-26T16:23:13.297Z,3.52
2019-04-26T16:25:42.848Z,2.15
2019-04-26T16:28:16.018Z,1.60
2019-04-26T16:36:06.126Z,2.90
2019-04-26T16:38:35.375Z,2.42
2019-04-26T16:41:03.952Z,1.70
2019-04-26T16:43:39.646Z,1.62
2019-04-26T16:46:02.500Z,2.22
2019-04-26T16:48:30.852Z,2.27
2019-04-26T16:51:00.869Z,2.70
2019-04-26T16:53:43.887Z,3.58
2019-04-26T16:55:59.266Z,4.60
2019-04-26T16:58:31.064Z,1.77
2019-04-26T17:00:58.619Z,1.85
2019-04-26T17:03:27.183Z,2.27
2019-04-26T17:06:04.926Z,3.45
2019-04-26T17:08:25.782Z,3.98
2019-04-26T17:10:56.675Z,2.40
2019-04-26T17:13:29.782Z,2.67
2019-04-26T17:15:58.300Z,1.90
2019-04-26T17:18:27.034Z,3.62
2019-04-26T17:20:54.331Z,2.33
2019-04-26T17:23:42.572Z,3.72
2019-04-26T17:26:24.467Z,1.92
2019-04-26T17:28:55.531Z,2.70
2019-04-26T17:31:23.740Z,2.22
2019-04-26T17:33:51.992Z,3.42
2019-04-26T17:36:20.278Z,2.58
2019-04-26T17:38:50.426Z,4.03
2019-04-26T17:41:18.544Z,2.27
2019-04-26T17:43:50.491Z,3.25
2019-04-26T17:46:18.184Z,3.58
2019-04-26T17:48:49.459Z,4.05
2019-04-26T17:51:19.451Z,3.55
2019-04-26T17:53:50.602Z,4.12
2019-04-26T17:56:19.182Z,7.00
2019-04-26T17:58:53.676Z,7.08
2019-04-26T18:01:39.911Z,5.67
2019-04-26T18:03:52.172Z,5.00
2019-04-26T18:06:29.028Z,6.05
2019-04-26T18:08:54.209Z,5.72
2019-04-26T18:11:24.582Z,7.30
2019-04-26T18:13:51.289Z,7.53
2019-04-26T18:16:23.120Z,7.42
2019-04-26T18:19:05.143Z,7.97
2019-04-26T18:21:56.028Z,8.85
2019-04-26T18:24:23.422Z,9.15
2019-04-26T18:26:58.888Z,9.30
2019-04-26T18:29:23.739Z,10.72
2019-04-26T18:31:53.521Z,11.05
2019-04-26T18:34:23.209Z,12.73
2019-04-26T18:36:51.722Z,12.13
2019-04-26T18:39:22.814Z,12.50
2019-04-26T18:41:50.206Z,13.75
2019-04-26T18:44:18.716Z,16.30
2019-04-26T18:46:48.620Z,17.85
2019-04-26T18:49:22.501Z,19.62
2019-04-26T18:51:48.264Z,18.57
2019-04-26T18:54:18.858Z,21.80
2019-04-26T18:56:55.856Z,23.30
2019-04-26T18:59:24.206Z,23.00
2019-04-26T19:01:54.977Z,21.77
2019-04-26T19:04:23.724Z,18.92
2019-04-26T19:06:52.151Z,20.12
2019-04-26T19:09:22.094Z,20.15
2019-04-26T19:11:52.397Z,20.62
2019-04-26T19:14:48.757Z,20.08
2019-04-26T19:17:22.088Z,18.17
2019-04-26T19:20:08.503Z,17.50
2019-04-26T19:22:37.963Z,18.35
2019-04-26T19:25:18.783Z,18.50
2019-04-26T19:27:47.313Z,18.30
2019-04-26T19:30:09.266Z,19.32
2019-04-26T19:32:39.617Z,20.50
2019-04-26T19:35:12.089Z,20.23
2019-04-26T19:37:38.064Z,20.80
2019-04-26T19:40:09.075Z,23.38
2019-04-26T19:42:37.155Z,22.73
2019-04-26T19:45:13.548Z,23.62
2019-04-26T19:47:52.113Z,24.90
2019-04-26T19:50:41.989Z,26.43
2019-04-26T19:53:10.405Z,28.20
2019-04-26T19:55:55.771Z,31.87
2019-04-26T19:58:25.669Z,33.65
2019-04-26T20:00:53.961Z,35.75
2019-04-26T20:03:22.242Z,32.58
2019-04-26T20:05:52.766Z,37.33
2019-04-26T20:08:21.521Z,36.48
2019-04-26T20:10:52.049Z,38.28
2019-04-26T20:13:21.961Z,32.73
2019-04-26T20:15:51.433Z,38.63
2019-04-26T20:18:21.407Z,36.70
2019-04-26T20:20:52.006Z,40.60
2019-04-26T20:23:20.045Z,39.73
2019-04-26T20:25:52.901Z,40.43
2019-04-26T20:28:22.658Z,42.38
2019-04-26T20:31:09.107Z,41.95
2019-04-26T20:33:37.767Z,43.15
2019-04-26T20:36:06.107Z,41.42
2019-04-26T20:38:42.863Z,43.30
2019-04-26T20:41:04.652Z,42.43
2019-04-26T20:43:36.868Z,43.10
2019-04-26T20:46:14.574Z,41.35
2019-04-26T20:48:35.574Z,41.95
2019-04-26T20:51:06.670Z,40.63
2019-04-26T20:53:40.073Z,41.98
2019-04-26T20:56:09.442Z,44.65
2019-04-26T20:58:37.461Z,41.77
2019-04-26T21:01:06.293Z,42.80
2019-04-26T21:03:41.942Z,42.80
2019-04-26T21:06:06.190Z,41.37
2019-04-26T21:08:34.523Z,41.40
2019-04-26T21:11:03.282Z,41.73
2019-04-26T21:13:32.483Z,41.75
2019-04-26T21:16:03.618Z,44.18
2019-04-26T21:18:33.644Z,41.77
2019-04-26T21:21:01.505Z,43.87
2019-04-26T21:23:33.628Z,42.85
2019-04-26T21:28:49.111Z,42.45
2019-04-26T21:31:22.363Z,46.10
2019-04-26T21:34:13.864Z,47.60
2019-04-26T21:36:43.756Z,45.25
2019-04-26T21:39:16.188Z,46.50
2019-04-26T21:41:48.366Z,45.10
2019-04-26T21:44:16.112Z,46.40
2019-04-26T21:46:44.380Z,53.48
2019-04-26T21:49:13.627Z,55.03
2019-04-26T21:51:44.717Z,50.17
2019-04-26T21:54:14.375Z,46.45
2019-04-26T21:56:48.570Z,46.50
2019-04-26T21:59:13.806Z,44.25
2019-04-26T22:01:43.482Z,46.45
2019-04-26T22:04:13.314Z,42.93
2019-04-26T22:06:42.283Z,45.83
2019-04-26T22:09:21.908Z,45.38
2019-04-26T22:11:53.944Z,42.55
2019-04-26T22:14:23.629Z,46.35
2019-04-26T22:16:57.480Z,41.30
2019-04-26T22:19:32.244Z,41.35
2019-04-26T22:22:05.765Z,36.73
2019-04-26T22:24:31.457Z,42.48
2019-04-26T22:26:59.707Z,41.30
2019-04-26T22:29:28.935Z,41.68
2019-04-26T22:31:57.939Z,43.60
2019-04-26T22:34:26.215Z,41.35
2019-04-26T22:36:55.507Z,42.55
2019-04-26T22:39:24.563Z,40.00
2019-04-26T22:41:53.504Z,39.38
2019-04-26T22:44:34.051Z,42.53
2019-04-26T22:47:04.831Z,43.13
2019-04-26T22:49:34.938Z,44.98
2019-04-26T22:52:06.330Z,42.98
2019-04-26T22:54:33.554Z,44.88
2019-04-26T22:57:03.789Z,45.10
2019-04-26T22:59:33.804Z,46.18
2019-04-26T23:02:03.476Z,46.00
2019-04-26T23:04:33.045Z,46.58
2019-04-26T23:07:03.426Z,42.38
2019-04-26T23:09:33.292Z,45.88
2019-04-26T23:12:06.004Z,44.42
2019-04-26T23:14:43.758Z,46.10
2019-04-26T23:17:14.115Z,47.85
2019-04-26T23:19:49.453Z,50.50
2019-04-26T23:22:17.043Z,51.50
2019-04-26T23:24:49.226Z,53.33
2019-04-26T23:27:20.559Z,54.60
2019-04-26T23:29:45.903Z,56.25
2019-04-26T23:32:18.183Z,52.98
2019-04-26T23:34:46.127Z,52.80
2019-04-26T23:37:14.403Z,55.30
2019-04-26T23:39:49.285Z,54.15
2019-04-26T23:42:16.477Z,56.37
2019-04-26T23:44:44.088Z,55.38
2019-04-26T23:47:20.989Z,57.65
2019-04-26T23:49:43.399Z,58.23
2019-04-26T23:52:14.585Z,58.40
2019-04-26T23:54:42.799Z,57.85
2019-04-26T23:57:11.062Z,55.70
2019-04-26T23:59:39.719Z,55.23
